Airfield :
LOGIN :

Register | Disclaimer

   EN    FR    IT 

 










Legend :    VFR   Marginal VFR   IFR   Intensive IFR   Very Intensive IFR
Visi :
Ceiling :
>= 8 km
>= 3000ft
5 to 8 km
1000 to 3000 ft
1500m to 5 km
500 to 1000 ft
800 to 1500m
200 to 500 ft
< 800m
< 200 ft
Symbols :   Thunderstorms  Fog  Heavy snow  Heavy precipitations  Wind > 20 kt
SIGMETs :     Misc.  Thunderstorms  Icing  Turbulence  Mountain Waves  Volcanic Ashes






- Airport Elevation : 1989 ft
- IATA code : KLV


LKKV - Karlovy Vary

CURRENT METAR :
  • 300000Z 09002KT 9999 BKN046 12/10 Q1010

EXPIRED METARs :
  • 292300Z 10003KT 9999 BKN046 12/10 Q1011
  • 292200Z 00000KT 9999 SCT043 12/10 Q1011
  • 292100Z VRB01KT 9999 FEW046 14/10 Q1011
  • 292000Z VRB01KT CAVOK 13/11 Q1012

TAF TAF LKKV
Valid from the 30 at 00:00 until the 31 at 00:00 UTC


292300Z 3000/3100 16005KT 9999 BKN030
TEMPO 3000/3010 7000 RA SCT007 BKN017
TEMPO 3010/3020 16015KT 5000 SHRA SCT015TCU
PROB30
TEMPO 3012/3017 TSRA SCT010CB
TEMPO 3020/3100 1200 BCFG SCT001



MET'MAP, your aeronautical weather chart ! - Copyright ORBIFLY December 2007 - Disclaimer

ORBIFLY MET'MAP TEAM :

Programming & Development : Alexandra Zaïnal
Original concept : Baudouin d'Aumeries
Technical & hardware support : Manuel Goepfert
Assistance : Marc-Olivier Méhu




SOURCES & CREDITS :

   NOAA